Time;durP1;ratioP1;P1;durP2;ratioP2;P2;SDS_P1;SDS_P2;PMS_P1;PMS_P2;Temp;Humidity;BMP_temperature;BMP_pressure;BME280_temperature;BME280_humidity;BME280_pressure;Samples;Min_cycle;Max_cycle;Signal;HPM_P1;HPM_P2
2024/02/01 00:00:23;;;;;;;2.43;0.87;;;;;;;6.23;81.50;101599.09;5074635;28;20445;-67
2024/02/01 00:02:50;;;;;;;2.30;1.13;;;;;;;6.26;81.33;101592.44;5074899;28;20827;-68
2024/02/01 00:05:17;;;;;;;6.43;1.60;;;;;;;6.30;80.75;101601.66;5075275;28;20524;-67
2024/02/01 00:07:45;;;;;;;3.77;1.63;;;;;;;6.29;80.72;101592.75;5074793;28;20936;-67
2024/02/01 00:10:12;;;;;;;2.47;0.93;;;;;;;6.24;80.71;101583.78;5074923;28;20441;-67
2024/02/01 00:12:38;;;;;;;2.73;1.20;;;;;;;6.19;81.08;101575.63;5074849;28;20461;-67
2024/02/01 00:15:06;;;;;;;2.63;1.07;;;;;;;6.21;81.04;101571.66;5074737;28;20524;-67
2024/02/01 00:17:32;;;;;;;3.00;1.20;;;;;;;6.19;81.26;101564.88;5074961;28;20506;-67
2024/02/01 00:19:59;;;;;;;3.10;1.33;;;;;;;6.22;80.81;101561.69;5074675;28;20801;-68
2024/02/01 00:22:26;;;;;;;2.87;1.17;;;;;;;6.24;80.57;101562.25;5074757;28;20552;-67
2024/02/01 00:24:54;;;;;;;2.30;0.80;;;;;;;6.19;81.30;101548.75;5074554;28;20456;-67
2024/02/01 00:27:20;;;;;;;4.07;1.70;;;;;;;6.22;80.84;101541.00;5074505;28;20537;-67
2024/02/01 00:29:47;;;;;;;3.17;1.50;;;;;;;6.24;80.62;101541.56;5074330;28;20477;-67
2024/02/01 00:32:14;;;;;;;3.60;1.30;;;;;;;6.24;80.54;101546.13;5073974;28;20557;-67
2024/02/01 00:34:42;;;;;;;3.13;1.17;;;;;;;6.22;80.47;101535.63;5074375;28;20949;-67
2024/02/01 00:37:09;;;;;;;2.50;1.00;;;;;;;6.24;80.30;101532.66;5074274;28;20520;-67
2024/02/01 00:39:36;;;;;;;1.93;0.97;;;;;;;6.29;80.11;101528.19;5074516;28;20520;-68
2024/02/01 00:42:04;;;;;;;3.87;1.63;;;;;;;6.22;80.69;101530.22;5074113;28;20499;-68
2024/02/01 00:44:31;;;;;;;2.93;1.17;;;;;;;6.25;80.15;101520.88;5073976;28;20445;-68
2024/02/01 00:46:58;;;;;;;2.60;1.07;;;;;;;6.22;80.81;101514.09;5073894;28;20906;-68
2024/02/01 00:49:24;;;;;;;3.17;1.27;;;;;;;6.22;80.65;101519.47;5073668;28;20992;-68
2024/02/01 00:51:51;;;;;;;3.03;1.20;;;;;;;6.19;80.73;101522.66;5073652;28;20495;-68
2024/02/01 00:54:17;;;;;;;2.90;1.13;;;;;;;6.22;80.53;101516.78;5074320;28;20437;-68
2024/02/01 00:56:44;;;;;;;2.20;0.90;;;;;;;6.20;80.98;101515.41;5073901;28;20437;-68
2024/02/01 00:59:12;;;;;;;2.47;1.20;;;;;;;6.24;80.90;101513.84;5074114;28;20470;-68
2024/02/01 01:01:39;;;;;;;2.03;1.00;;;;;;;6.23;80.53;101506.84;5073544;28;20465;-68
2024/02/01 01:04:05;;;;;;;2.50;1.20;;;;;;;6.23;80.46;101509.53;5073843;28;21028;-68
2024/02/01 01:06:32;;;;;;;2.20;1.00;;;;;;;6.31;80.02;101515.28;5074413;28;20441;-68
2024/02/01 01:08:59;;;;;;;2.57;1.03;;;;;;;6.30;79.65;101500.22;5073351;28;20564;-68
2024/02/01 01:11:26;;;;;;;2.17;1.00;;;;;;;6.28;79.55;101501.50;5073726;28;20487;-67
2024/02/01 01:13:53;;;;;;;5.00;1.73;;;;;;;6.25;79.67;101497.47;5074026;28;20471;-67
2024/02/01 01:16:21;;;;;;;4.03;1.70;;;;;;;6.17;80.17;101497.88;5073671;28;20532;-67
2024/02/01 01:18:47;;;;;;;3.17;1.10;;;;;;;6.19;80.66;101493.06;5073711;28;20437;-67
2024/02/01 01:21:14;;;;;;;3.57;1.40;;;;;;;6.18;80.37;101494.13;5073652;28;20469;-67
2024/02/01 01:23:40;;;;;;;3.80;1.00;;;;;;;6.19;80.47;101485.00;5073925;28;20444;-67
2024/02/01 01:26:07;;;;;;;2.77;0.93;;;;;;;6.26;80.36;101482.13;5073261;28;20528;-67
2024/02/01 01:28:34;;;;;;;3.13;1.40;;;;;;;6.25;80.00;101489.41;5073799;28;20571;-67
2024/02/01 01:31:00;;;;;;;2.67;1.17;;;;;;;6.26;80.14;101474.88;5073663;28;20445;-67
2024/02/01 01:33:28;;;;;;;3.10;1.23;;;;;;;6.24;80.37;101468.94;5073793;28;20489;-67
2024/02/01 01:35:55;;;;;;;2.60;1.27;;;;;;;6.33;80.17;101474.69;5073489;28;20528;-67
2024/02/01 01:38:22;;;;;;;2.67;1.10;;;;;;;6.32;79.48;101463.09;5073123;28;20487;-67
2024/02/01 01:40:50;;;;;;;2.93;1.10;;;;;;;6.36;79.43;101470.69;5074101;28;20425;-67
2024/02/01 01:43:17;;;;;;;2.43;1.00;;;;;;;6.30;79.48;101467.94;5073860;28;20523;-67
2024/02/01 01:45:43;;;;;;;3.60;1.50;;;;;;;6.25;80.25;101451.72;5072998;28;20453;-67
2024/02/01 01:48:10;;;;;;;3.03;1.30;;;;;;;6.36;79.33;101457.22;5072962;28;21032;-67
2024/02/01 01:50:38;;;;;;;3.53;1.87;;;;;;;6.34;80.22;101457.47;5073028;28;20532;-67
2024/02/01 01:53:06;;;;;;;5.30;0.80;;;;;;;6.31;79.92;101460.66;5073455;28;21028;-66
2024/02/01 01:55:32;;;;;;;2.10;0.80;;;;;;;6.35;80.22;101452.91;5073204;28;20437;-66
2024/02/01 01:57:59;;;;;;;3.70;1.43;;;;;;;6.34;79.70;101454.00;5072985;28;20469;-66
2024/02/01 02:00:26;;;;;;;2.60;1.00;;;;;;;6.38;79.81;101458.63;5073443;28;20448;-66
2024/02/01 02:02:54;;;;;;;3.47;1.30;;;;;;;6.37;79.22;101456.97;5076620;28;20460;-67
2024/02/01 02:05:20;;;;;;;4.73;0.93;;;;;;;6.38;79.61;101452.41;5077236;28;20441;-67
2024/02/01 02:07:48;;;;;;;3.50;1.57;;;;;;;6.39;80.04;101456.72;5077111;28;20959;-67
2024/02/01 02:10:15;;;;;;;4.70;1.33;;;;;;;6.40;79.79;101447.59;5077197;28;20481;-67
2024/02/01 02:12:43;;;;;;;4.73;1.63;;;;;;;6.35;80.20;101447.53;5076966;28;20468;-68
2024/02/01 02:15:09;;;;;;;3.60;1.80;;;;;;;6.39;80.13;101449.47;5077228;28;20443;-67
2024/02/01 02:17:35;;;;;;;6.00;1.23;;;;;;;6.27;82.42;101444.22;5077315;28;20536;-67
2024/02/01 02:20:16;;;;;;;2.50;1.30;;;;;;;6.17;85.01;101446.78;5076942;28;20525;-67
2024/02/01 02:22:45;;;;;;;2.77;0.93;;;;;;;6.02;89.24;101451.94;5076708;28;20453;-67
2024/02/01 02:25:13;;;;;;;2.20;0.80;;;;;;;5.85;91.83;101445.81;5076882;28;20495;-67
2024/02/01 02:27:40;;;;;;;2.10;0.90;;;;;;;5.74;93.85;101439.44;5077079;28;20445;-67
2024/02/01 02:30:08;;;;;;;2.23;1.00;;;;;;;5.59;96.04;101425.81;5076763;28;20576;-67
2024/02/01 02:32:34;;;;;;;6.30;1.50;;;;;;;5.50;98.70;101428.09;5076571;28;20469;-67
2024/02/01 02:35:01;;;;;;;4.10;1.67;;;;;;;5.43;100.00;101430.13;5076420;28;20447;-67
2024/02/01 02:37:29;;;;;;;2.33;1.10;;;;;;;5.35;100.00;101419.78;5076310;28;20990;-67
2024/02/01 02:39:57;;;;;;;2.57;0.70;;;;;;;5.26;100.00;101422.88;5076559;28;20441;-67
2024/02/01 02:42:24;;;;;;;2.53;1.30;;;;;;;5.22;100.00;101426.31;5076446;28;20562;-67
2024/02/01 02:44:51;;;;;;;3.50;1.57;;;;;;;5.23;100.00;101428.78;5075946;28;20518;-67
2024/02/01 02:47:18;;;;;;;3.53;1.40;;;;;;;5.23;100.00;101428.78;5076465;28;20533;-67
2024/02/01 02:49:45;;;;;;;2.57;1.27;;;;;;;5.22;100.00;101429.84;5076318;28;20487;-67
2024/02/01 02:52:11;;;;;;;2.20;0.80;;;;;;;5.18;100.00;101425.16;5075974;28;20801;-67
2024/02/01 02:54:38;;;;;;;5.50;1.73;;;;;;;5.14;100.00;101430.22;5076326;28;20528;-67
2024/02/01 02:57:07;;;;;;;2.40;1.20;;;;;;;5.11;100.00;101419.16;5075942;28;20524;-67
2024/02/01 02:59:37;;;;;;;2.60;1.10;;;;;;;5.06;100.00;101425.25;5076500;28;20437;-67
2024/02/01 03:02:06;;;;;;;1.90;0.67;;;;;;;5.07;100.00;101425.00;5076281;28;20500;-67
2024/02/01 03:04:33;;;;;;;2.70;1.30;;;;;;;5.13;100.00;101427.78;5075855;28;20441;-67
2024/02/01 03:07:00;;;;;;;1.77;0.50;;;;;;;5.10;100.00;101429.09;5076083;28;20491;-67
2024/02/01 03:09:26;;;;;;;2.60;1.23;;;;;;;5.10;100.00;101421.03;5076227;28;20517;-67
2024/02/01 03:11:53;;;;;;;4.73;2.27;;;;;;;5.10;100.00;101422.91;5075678;28;20537;-67
2024/02/01 03:14:21;;;;;;;2.60;1.43;;;;;;;5.06;100.00;101433.31;5076199;28;20520;-67
2024/02/01 03:16:48;;;;;;;2.60;1.23;;;;;;;5.07;100.00;101425.00;5076343;28;20448;-67
2024/02/01 03:19:14;;;;;;;3.60;1.73;;;;;;;5.07;100.00;101408.91;5075504;28;20528;-68
2024/02/01 03:21:41;;;;;;;6.43;1.27;;;;;;;5.09;100.00;101405.16;5075831;28;20536;-68
2024/02/01 03:24:08;;;;;;;2.57;0.90;;;;;;;5.07;100.00;101405.41;5076443;28;20475;-68
2024/02/01 03:26:35;;;;;;;2.93;1.23;;;;;;;5.06;100.00;101404.59;5075772;28;20449;-68
2024/02/01 03:29:02;;;;;;;2.13;1.00;;;;;;;5.09;100.00;101394.41;5075350;28;20960;-68
2024/02/01 03:31:34;;;;;;;3.60;1.30;;;;;;;5.07;100.00;101400.84;5075904;28;20441;-67
2024/02/01 03:34:05;;;;;;;2.97;0.80;;;;;;;5.05;100.00;101404.84;5075946;28;20418;-67
2024/02/01 03:36:33;;;;;;;2.67;1.27;;;;;;;5.02;100.00;101405.31;5075628;28;20846;-67
2024/02/01 03:39:00;;;;;;;2.87;1.20;;;;;;;5.04;100.00;101395.13;5075591;28;20529;-67
2024/02/01 03:41:27;;;;;;;2.17;1.00;;;;;;;5.07;100.00;101403.53;5075135;28;20446;-67
2024/02/01 03:43:53;;;;;;;3.00;1.27;;;;;;;5.06;100.00;101401.09;5075739;28;20438;-67
2024/02/01 03:46:20;;;;;;;2.63;1.43;;;;;;;5.09;100.00;101406.00;5075643;28;20453;-67
2024/02/01 03:48:48;;;;;;;2.70;1.20;;;;;;;5.10;100.00;101407.59;5075003;28;20864;-67
2024/02/01 03:51:16;;;;;;;4.40;1.03;;;;;;;5.07;100.00;101402.72;5075158;28;20477;-67
2024/02/01 03:53:42;;;;;;;2.30;0.93;;;;;;;5.10;100.00;101404.13;5075551;28;20525;-67
2024/02/01 03:56:09;;;;;;;2.47;1.20;;;;;;;5.10;100.00;101402.25;5075524;28;20441;-67
2024/02/01 03:58:36;;;;;;;2.73;1.07;;;;;;;5.12;100.00;101404.66;5074797;28;20856;-67
2024/02/01 04:01:02;;;;;;;3.13;1.50;;;;;;;5.17;100.00;101407.44;5075402;28;20512;-67
2024/02/01 04:03:29;;;;;;;3.07;1.33;;;;;;;5.19;100.00;101398.09;5075006;28;20489;-67
2024/02/01 04:06:00;;;;;;;2.97;1.27;;;;;;;5.19;100.00;101395.41;5075212;28;20448;-67
2024/02/01 04:08:27;;;;;;;2.87;1.00;;;;;;;5.27;100.00;101397.69;5075076;28;20430;-67
2024/02/01 04:10:54;;;;;;;3.40;1.60;;;;;;;5.25;100.00;101398.97;5074772;28;20669;-67
2024/02/01 04:13:20;;;;;;;2.30;0.90;;;;;;;5.25;100.00;101399.78;5074783;28;20822;-67
2024/02/01 04:15:47;;;;;;;3.53;1.77;;;;;;;5.28;100.00;101399.31;5074913;28;20447;-67
2024/02/01 04:18:13;;;;;;;2.30;0.90;;;;;;;5.34;100.00;101397.50;5075270;28;20544;-67
2024/02/01 04:20:41;;;;;;;5.37;1.83;;;;;;;5.38;100.00;101408.56;5074979;28;20476;-67
2024/02/01 04:23:09;;;;;;;2.93;1.20;;;;;;;5.39;100.00;101394.88;5073901;28;20844;-67
2024/02/01 04:25:37;;;;;;;2.10;0.80;;;;;;;5.43;100.00;101395.22;5073880;28;21000;-67
2024/02/01 04:28:08;;;;;;;2.23;1.00;;;;;;;5.47;100.00;101401.72;5078680;28;20505;-67
2024/02/01 04:30:36;;;;;;;9.80;1.67;;;;;;;5.49;100.00;101399.59;5082166;28;20556;-67
2024/02/01 04:33:03;;;;;;;3.40;1.60;;;;;;;5.49;100.00;101400.44;5074354;28;20544;-67
2024/02/01 04:35:30;;;;;;;3.93;2.50;;;;;;;5.49;100.00;101407.63;5075133;28;20456;-67
2024/02/01 04:37:57;;;;;;;2.97;1.40;;;;;;;5.53;100.00;101424.91;5074433;28;20933;-67
2024/02/01 04:40:25;;;;;;;2.93;1.43;;;;;;;5.53;100.00;101422.22;5074277;28;20479;-67
2024/02/01 04:42:52;;;;;;;4.30;2.17;;;;;;;5.47;100.00;101421.34;5073998;28;20461;-67
2024/02/01 04:45:19;;;;;;;4.50;1.80;;;;;;;5.46;100.00;101426.97;5073897;28;20453;-67
2024/02/01 04:47:46;;;;;;;3.03;1.43;;;;;;;5.48;100.00;101433.69;5074118;28;20442;-67
2024/02/01 04:50:13;;;;;;;2.80;1.20;;;;;;;5.49;100.00;101431.81;5074160;28;20489;-67
2024/02/01 04:52:39;;;;;;;3.10;1.33;;;;;;;5.48;100.00;101424.84;5073900;28;20465;-67
2024/02/01 04:55:07;;;;;;;2.80;1.33;;;;;;;5.56;100.00;101446.72;5073998;28;20451;-67
2024/02/01 04:57:37;;;;;;;3.13;1.70;;;;;;;5.52;100.00;101432.16;5074525;28;20445;-67
2024/02/01 05:00:13;;;;;;;2.70;1.33;;;;;;;5.53;100.00;101428.44;5074134;28;20429;-67
2024/02/01 05:02:39;;;;;;;3.33;0.93;;;;;;;5.58;100.00;101411.56;5073855;28;20493;-67
2024/02/01 05:05:07;;;;;;;3.30;1.63;;;;;;;5.61;100.00;101423.69;5074303;28;20437;-67
2024/02/01 05:07:33;;;;;;;3.47;1.80;;;;;;;5.61;100.00;101432.53;5073848;28;20494;-67
2024/02/01 05:10:00;;;;;;;3.93;2.10;;;;;;;5.68;100.00;101427.00;5074068;28;20485;-68
2024/02/01 05:12:27;;;;;;;3.23;1.10;;;;;;;5.71;100.00;101413.06;5073716;28;20561;-67
2024/02/01 05:14:55;;;;;;;2.30;1.03;;;;;;;5.71;100.00;101426.50;5073815;28;20438;-67
2024/02/01 05:17:21;;;;;;;3.33;1.93;;;;;;;5.70;100.00;101433.75;5073972;28;20437;-67
2024/02/01 05:19:48;;;;;;;4.50;1.77;;;;;;;5.75;100.00;101423.06;5073685;28;20480;-67
2024/02/01 05:22:14;;;;;;;4.10;1.87;;;;;;;5.75;100.00;101422.25;5073272;28;20543;-67
2024/02/01 05:24:41;;;;;;;4.43;1.87;;;;;;;5.82;100.00;101426.41;5073696;28;20871;-67
2024/02/01 05:27:08;;;;;;;4.07;1.80;;;;;;;5.82;100.00;101434.47;5073671;28;20544;-67
2024/02/01 05:29:36;;;;;;;5.07;2.00;;;;;;;5.86;100.00;101434.78;5073777;28;20465;-66
2024/02/01 05:32:06;;;;;;;2.83;1.57;;;;;;;5.85;100.00;101435.03;5074105;28;20460;-73
2024/02/01 05:34:34;;;;;;;3.70;1.30;;;;;;;5.91;100.00;101434.03;5074115;28;20434;-67
2024/02/01 05:37:01;;;;;;;4.17;1.73;;;;;;;5.94;100.00;101438.97;5073160;28;20443;-67
2024/02/01 05:39:27;;;;;;;3.40;1.83;;;;;;;5.94;100.00;101441.66;5073149;28;20442;-67
2024/02/01 05:41:55;;;;;;;2.17;0.93;;;;;;;5.94;100.00;101444.34;5073772;28;20457;-67
2024/02/01 05:44:23;;;;;;;3.20;1.60;;;;;;;5.95;100.00;101451.34;5086090;22;20477;-70
2024/02/01 05:46:53;;;;;;;4.77;1.90;;;;;;;5.97;100.00;101454.56;5073228;28;20429;-69
2024/02/01 05:49:22;;;;;;;5.30;2.93;;;;;;;5.93;100.00;101459.66;5073133;28;20448;-69
2024/02/01 05:51:50;;;;;;;3.70;1.93;;;;;;;6.04;100.00;101460.59;5073208;28;20489;-70
2024/02/01 05:54:17;;;;;;;4.30;1.23;;;;;;;6.05;100.00;101462.22;5073189;28;20443;-70
2024/02/01 05:56:44;;;;;;;2.60;1.63;;;;;;;6.10;100.00;101470.34;5073610;28;20471;-70
2024/02/01 05:59:13;;;;;;;5.80;1.90;;;;;;;6.14;100.00;101463.41;5073107;28;20443;-70
2024/02/01 06:01:40;;;;;;;3.50;1.77;;;;;;;6.12;100.00;101468.25;5073174;28;20453;-70
2024/02/01 06:04:07;;;;;;;2.10;1.07;;;;;;;6.14;100.00;101465.28;5073457;28;20452;-70
2024/02/01 06:06:36;;;;;;;4.37;1.90;;;;;;;6.11;100.00;101472.00;5073359;28;20441;-70
2024/02/01 06:09:04;;;;;;;3.10;1.53;;;;;;;6.12;100.00;101475.50;5073648;28;20765;-70
2024/02/01 06:11:30;;;;;;;5.33;2.00;;;;;;;6.15;100.00;101483.84;5073026;28;20487;-70
2024/02/01 06:13:57;;;;;;;5.10;2.03;;;;;;;6.14;100.00;101481.44;5073314;28;20469;-70
2024/02/01 06:16:23;;;;;;;2.50;1.03;;;;;;;6.17;100.00;101481.75;5073533;28;20449;-70
2024/02/01 06:18:50;;;;;;;3.17;1.67;;;;;;;6.15;100.00;101486.56;5072802;28;20589;-70
2024/02/01 06:21:17;;;;;;;3.50;1.93;;;;;;;6.13;100.00;101485.19;5073016;28;20576;-70
2024/02/01 06:23:45;;;;;;;5.87;2.47;;;;;;;6.16;100.00;101493.59;5072746;28;20930;-70
2024/02/01 06:26:19;;;;;;;3.97;1.50;;;;;;;6.17;100.00;101487.13;5073091;28;20437;-70
2024/02/01 06:28:46;;;;;;;4.70;1.40;;;;;;;6.21;100.00;101495.53;5073016;28;20521;-70
2024/02/01 06:31:13;;;;;;;3.37;2.27;;;;;;;6.26;100.00;101492.91;5072895;28;20477;-70
2024/02/01 06:33:40;;;;;;;5.40;2.53;;;;;;;6.27;100.00;101503.41;5072630;28;20840;-70
2024/02/01 06:36:13;;;;;;;5.70;2.23;;;;;;;6.35;100.00;101501.34;5072632;28;20816;-71
2024/02/01 06:39:09;;;;;;;2.23;1.00;;;;;;;6.34;100.00;101505.09;5072828;28;20793;-69
2024/02/01 06:42:01;;;;;;;4.07;2.17;;;;;;;6.28;100.00;101510.41;5072861;28;20485;-69
2024/02/01 06:44:31;;;;;;;4.90;2.07;;;;;;;6.36;100.00;101508.34;5072742;28;20449;-69
2024/02/01 06:47:11;;;;;;;3.00;1.10;;;;;;;6.35;100.00;101518.31;5073666;28;20421;-70
2024/02/01 06:49:59;;;;;;;4.23;2.30;;;;;;;6.37;100.00;101518.84;5076444;28;20414;-69
2024/02/01 06:52:38;;;;;;;2.67;1.20;;;;;;;6.36;100.00;101527.19;5076939;28;20451;-69
2024/02/01 06:58:03;;;;;;;2.53;1.50;;;;;;;6.34;100.00;101530.13;5076435;28;20788;-69
2024/02/01 07:03:32;;;;;;;3.53;1.40;;;;;;;6.34;100.00;101534.69;5076245;28;20506;-69
2024/02/01 07:06:05;;;;;;;3.50;1.47;;;;;;;6.44;100.00;101542.91;5075973;28;20762;-69
2024/02/01 07:08:45;;;;;;;4.70;2.40;;;;;;;6.41;100.00;101551.47;5076510;28;20429;-69
2024/02/01 07:11:14;;;;;;;3.40;1.17;;;;;;;6.42;100.00;101548.53;5076768;28;20472;-69
2024/02/01 07:13:58;;;;;;;3.67;1.97;;;;;;;6.44;100.00;101554.47;5076656;28;20441;-69
2024/02/01 07:16:35;;;;;;;2.40;1.40;;;;;;;6.56;100.00;101565.13;5076582;28;20414;-69
2024/02/01 07:19:12;;;;;;;2.70;1.23;;;;;;;6.50;100.00;101566.91;5076503;28;20425;-69
2024/02/01 07:22:00;;;;;;;5.53;1.87;;;;;;;6.49;100.00;101575.25;5075579;28;20957;-70
2024/02/01 07:24:45;;;;;;;3.90;1.20;;;;;;;6.50;100.00;101579.56;5075824;28;20453;-69
2024/02/01 07:57:51;;;;;;;2.13;0.93;;;;;;;6.83;100.00;101629.81;5075476;28;20409;-70
2024/02/01 08:00:27;;;;;;;2.10;0.90;;;;;;;6.89;100.00;101642.28;5074135;28;20426;-71
2024/02/01 08:03:03;;;;;;;2.30;0.87;;;;;;;6.89;100.00;101649.53;5074871;28;20987;-71
2024/02/01 08:08:15;;;;;;;2.50;1.23;;;;;;;6.99;100.00;101671.19;5075272;28;20405;-71
2024/02/01 08:10:42;;;;;;;2.40;1.27;;;;;;;7.01;100.00;101666.41;5074812;28;20477;-71
2024/02/01 08:13:12;;;;;;;5.20;1.60;;;;;;;7.02;100.00;101671.53;5074511;28;20454;-70
2024/02/01 08:15:41;;;;;;;2.50;1.00;;;;;;;7.01;100.00;101687.94;5074825;28;20452;-71
2024/02/01 08:18:10;;;;;;;3.70;1.43;;;;;;;6.99;100.00;101684.66;5074779;28;20491;-70
2024/02/01 08:20:36;;;;;;;2.83;1.17;;;;;;;6.98;100.00;101688.44;5074726;28;20524;-70
2024/02/01 08:23:04;;;;;;;2.50;1.53;;;;;;;6.99;100.00;101681.97;5074481;28;20867;-70
2024/02/01 08:25:31;;;;;;;2.60;1.17;;;;;;;7.09;100.00;101698.28;5074830;28;20532;-71
2024/02/01 08:27:58;;;;;;;2.20;0.77;;;;;;;7.09;100.00;101692.91;5074625;28;20437;-70
2024/02/01 08:30:27;;;;;;;5.50;2.07;;;;;;;7.11;100.00;101700.72;5074186;28;20499;-71
2024/02/01 08:32:57;;;;;;;2.10;0.67;;;;;;;7.10;100.00;101709.88;5074414;28;20844;-70
2024/02/01 08:35:25;;;;;;;5.00;1.60;;;;;;;7.12;100.00;101702.34;5074668;28;20482;-70
2024/02/01 08:37:55;;;;;;;5.90;1.60;;;;;;;7.13;100.00;101701.28;5074644;28;20536;-70
2024/02/01 08:40:22;;;;;;;4.77;1.80;;;;;;;7.13;100.00;101703.97;5074601;28;20459;-70
2024/02/01 08:42:57;;;;;;;2.07;0.80;;;;;;;7.21;100.00;101698.97;5074135;28;20461;-70
2024/02/01 08:45:27;;;;;;;1.90;0.70;;;;;;;7.15;100.00;101708.06;5074270;28;20460;-69
2024/02/01 08:47:54;;;;;;;2.67;0.90;;;;;;;7.11;100.00;101706.94;5074249;28;20907;-69
2024/02/01 08:50:20;;;;;;;1.90;0.90;;;;;;;7.19;100.00;101713.78;5074071;28;20426;-70
2024/02/01 08:52:48;;;;;;;1.90;0.73;;;;;;;7.20;100.00;101716.19;5073721;28;20992;-70
2024/02/01 08:55:16;;;;;;;2.97;1.80;;;;;;;7.16;100.00;101714.25;5074026;28;20464;-70
2024/02/01 08:57:45;;;;;;;3.20;1.37;;;;;;;7.21;100.00;101712.44;5073726;28;20448;-70
2024/02/01 09:00:25;;;;;;;6.90;2.10;;;;;;;7.20;100.00;101713.50;5074314;28;20533;-70
2024/02/01 09:03:04;;;;;;;1.80;0.60;;;;;;;7.17;100.00;101722.09;5074662;28;20536;-69
2024/02/01 09:05:34;;;;;;;4.93;1.27;;;;;;;7.22;100.00;101706.00;5073941;28;20831;-69
2024/02/01 09:08:04;;;;;;;2.87;1.17;;;;;;;7.21;100.00;101709.75;5073873;28;20528;-70
2024/02/01 09:10:31;;;;;;;3.90;1.53;;;;;;;7.23;100.00;101718.41;5073480;28;20421;-68
2024/02/01 09:12:58;;;;;;;5.00;1.33;;;;;;;7.24;100.00;101709.25;5073461;28;20461;-67
2024/02/01 09:15:25;;;;;;;2.70;1.03;;;;;;;7.30;100.00;101710.97;5073772;28;20472;-69
2024/02/01 09:17:52;;;;;;;1.70;0.60;;;;;;;7.37;100.00;101709.94;5073443;28;20480;-70
2024/02/01 09:20:20;;;;;;;1.77;0.67;;;;;;;7.41;100.00;101719.16;5073729;28;20872;-69
2024/02/01 09:22:49;;;;;;;2.63;0.97;;;;;;;7.50;100.00;101736.50;5073987;28;20457;-69
2024/02/01 09:25:20;;;;;;;1.70;0.57;;;;;;;7.53;99.02;101727.94;5073989;28;20970;-69
2024/02/01 09:27:48;;;;;;;2.80;0.80;;;;;;;7.59;98.27;101740.41;5073670;28;20512;-70
2024/02/01 09:30:17;;;;;;;1.70;0.60;;;;;;;7.65;98.54;101727.78;5073720;28;20441;-69
2024/02/01 09:32:44;;;;;;;1.83;0.60;;;;;;;7.68;97.98;101722.69;5073822;28;20831;-70
2024/02/01 09:35:13;;;;;;;2.13;0.90;;;;;;;7.72;95.83;101739.19;5073909;28;20429;-70
2024/02/01 09:37:40;;;;;;;1.70;0.50;;;;;;;7.71;95.37;101732.16;5073233;28;20944;-71
2024/02/01 09:40:10;;;;;;;1.80;0.60;;;;;;;7.75;94.67;101738.69;5073682;28;20460;-73
2024/02/01 09:42:38;;;;;;;3.00;1.60;;;;;;;7.74;95.18;101743.25;5073404;28;20659;-71
2024/02/01 09:45:07;;;;;;;1.63;0.50;;;;;;;7.86;93.52;101736.91;5073189;28;20457;-71
2024/02/01 09:47:43;;;;;;;2.90;0.93;;;;;;;7.78;94.08;101733.56;5073484;28;20865;-71
2024/02/01 09:50:12;;;;;;;1.80;0.50;;;;;;;7.80;93.77;101726.06;5073498;28;20434;-71
2024/02/01 09:52:41;;;;;;;2.30;0.73;;;;;;;7.83;93.07;101736.34;5073556;28;20562;-72
2024/02/01 09:55:08;;;;;;;1.70;0.50;;;;;;;7.91;91.45;101731.56;5073541;28;20528;-71
2024/02/01 09:57:40;;;;;;;2.53;0.80;;;;;;;7.93;91.31;101751.00;5073184;28;20448;-72
2024/02/01 10:00:14;;;;;;;2.00;0.60;;;;;;;7.86;89.91;101745.00;5073959;28;20421;-70
2024/02/01 10:02:42;;;;;;;1.70;0.50;;;;;;;7.82;88.98;101755.47;5073315;28;20459;-71
2024/02/01 10:05:09;;;;;;;3.67;1.23;;;;;;;7.84;89.27;101764.13;5073456;28;20453;-71
2024/02/01 10:07:36;;;;;;;3.37;0.70;;;;;;;7.91;88.15;101758.53;5073166;28;20598;-70
2024/02/01 10:10:05;;;;;;;2.00;0.60;;;;;;;8.03;87.38;101765.41;5073304;28;20534;-70
2024/02/01 10:12:32;;;;;;;2.27;0.70;;;;;;;7.96;86.08;101769.38;5073034;28;20573;-71
2024/02/01 10:14:59;;;;;;;2.90;0.90;;;;;;;7.97;85.09;101768.28;5073160;28;20987;-70
2024/02/01 10:17:28;;;;;;;1.70;0.60;;;;;;;8.05;84.73;101759.75;5073291;28;20499;-71
2024/02/01 10:19:54;;;;;;;1.70;0.50;;;;;;;8.10;83.53;101754.41;5072816;28;20540;-70
2024/02/01 10:22:21;;;;;;;2.73;0.97;;;;;;;8.15;83.48;101754.47;5073838;28;20872;-71
2024/02/01 10:24:51;;;;;;;1.70;0.53;;;;;;;8.19;83.67;101760.16;5077311;28;20481;-71
2024/02/01 10:27:19;;;;;;;2.70;0.80;;;;;;;8.21;82.85;101758.84;5076566;28;20448;-70
2024/02/01 10:29:46;;;;;;;2.40;0.63;;;;;;;8.17;81.69;101765.81;5076824;28;20950;-71
2024/02/01 10:32:14;;;;;;;6.40;0.90;;;;;;;8.20;81.51;101751.00;5076663;28;20576;-71
2024/02/01 10:34:45;;;;;;;2.20;0.80;;;;;;;8.20;81.71;101759.91;5076446;28;20929;-70
2024/02/01 10:37:15;;;;;;;1.93;0.53;;;;;;;8.22;82.44;101759.66;5076431;28;20432;-70
2024/02/01 10:39:50;;;;;;;2.07;0.60;;;;;;;8.32;81.67;101757.88;5077021;28;20433;-70
2024/02/01 10:42:22;;;;;;;2.00;0.90;;;;;;;8.48;80.45;101761.53;5076967;28;20456;-70
2024/02/01 10:44:51;;;;;;;2.00;0.70;;;;;;;8.58;80.65;101777.00;5076786;28;20453;-70
2024/02/01 10:47:22;;;;;;;1.60;0.40;;;;;;;8.64;78.45;101767.88;5076925;28;20506;-70
2024/02/01 10:49:53;;;;;;;2.00;0.50;;;;;;;8.63;78.75;101766.22;5076546;28;20786;-70
2024/02/01 10:52:21;;;;;;;2.90;0.67;;;;;;;8.54;75.94;101756.97;5076443;28;20492;-70
2024/02/01 10:54:49;;;;;;;1.80;0.40;;;;;;;8.64;74.97;101764.34;5077050;28;20437;-71
2024/02/01 10:57:16;;;;;;;2.07;0.70;;;;;;;8.62;76.47;101761.91;5076025;28;20429;-71
2024/02/01 10:59:45;;;;;;;5.30;0.80;;;;;;;8.66;77.61;101760.31;5076161;28;20480;-71
2024/02/01 11:02:12;;;;;;;1.70;0.47;;;;;;;8.82;76.48;101759.34;5075994;28;20525;-71
2024/02/01 11:04:39;;;;;;;2.20;0.70;;;;;;;8.97;76.64;101763.22;5076142;28;20480;-71
2024/02/01 11:07:07;;;;;;;1.77;0.50;;;;;;;9.10;74.64;101776.28;5076559;28;20437;-70
2024/02/01 11:09:35;;;;;;;1.70;0.60;;;;;;;9.07;74.61;101756.00;5076214;28;20477;-70
2024/02/01 11:12:03;;;;;;;1.70;0.50;;;;;;;8.98;73.42;101762.94;5076386;28;20883;-71
2024/02/01 11:14:31;;;;;;;3.20;1.23;;;;;;;9.04;73.03;101780.03;5076074;28;20933;-71
2024/02/01 11:17:02;;;;;;;3.63;0.77;;;;;;;9.06;73.76;101767.06;5076297;28;20456;-70
2024/02/01 11:19:31;;;;;;;8.83;1.03;;;;;;;9.16;73.72;101785.22;5076383;28;20483;-71
2024/02/01 11:22:01;;;;;;;2.20;0.40;;;;;;;9.41;70.98;101787.25;5076023;28;20457;-70
2024/02/01 11:24:31;;;;;;;1.70;0.40;;;;;;;9.37;69.66;101807.78;5076150;28;20448;-70
2024/02/01 11:27:00;;;;;;;2.43;0.80;;;;;;;9.29;69.84;101790.97;5075605;28;20441;-71
2024/02/01 11:29:35;;;;;;;5.43;0.80;;;;;;;9.23;69.54;101781.22;5075409;28;20439;-71
2024/02/01 11:32:04;;;;;;;2.93;0.60;;;;;;;9.02;70.18;101774.06;5075532;28;20513;-70
2024/02/01 11:34:32;;;;;;;1.60;0.40;;;;;;;9.03;70.28;101773.81;5075696;28;20448;-70
2024/02/01 11:37:00;;;;;;;1.90;0.60;;;;;;;9.04;68.16;101780.03;5075546;28;20530;-69
2024/02/01 11:39:27;;;;;;;2.47;0.50;;;;;;;8.99;66.73;101780.81;5075956;28;20429;-69
2024/02/01 11:41:57;;;;;;;1.60;0.40;;;;;;;9.16;66.81;101785.22;5075367;28;20804;-72
2024/02/01 11:44:24;;;;;;;1.90;0.40;;;;;;;9.42;66.05;101788.88;5075182;28;20442;-74
2024/02/01 11:46:52;;;;;;;1.80;0.40;;;;;;;9.65;66.88;101780.34;5075379;28;20414;-69
2024/02/01 11:49:21;;;;;;;2.50;0.93;;;;;;;9.98;66.55;101779.06;5075341;28;20444;-69
2024/02/01 11:52:13;;;;;;;4.03;0.57;;;;;;;10.14;64.47;101804.28;5075528;28;20535;-70
2024/02/01 11:54:39;;;;;;;1.70;0.50;;;;;;;10.23;63.62;101794.53;5075293;28;20509;-70
2024/02/01 11:57:11;;;;;;;2.87;0.90;;;;;;;10.45;62.90;101790.81;5075069;28;20930;-69
2024/02/01 11:59:38;;;;;;;3.30;0.53;;;;;;;10.77;62.79;101804.06;5075550;28;20876;-70
2024/02/01 12:02:06;;;;;;;3.50;0.67;;;;;;;11.15;62.06;101791.00;5075621;28;20545;-70
2024/02/01 12:04:32;;;;;;;1.70;0.50;;;;;;;11.41;58.54;101791.75;5075149;28;20834;-70
2024/02/01 12:07:04;;;;;;;8.90;0.70;;;;;;;11.59;58.50;101782.97;5075377;28;20441;-70
2024/02/01 12:09:31;;;;;;;2.00;0.60;;;;;;;11.10;57.63;101779.06;5075093;28;20453;-70
2024/02/01 12:11:58;;;;;;;2.30;0.50;;;;;;;10.40;60.13;101767.22;5074532;28;20861;-69
2024/02/01 12:14:27;;;;;;;1.70;0.40;;;;;;;10.19;61.87;101771.00;5074887;28;20528;-70